Back to top

Jackson, WY weather

Jackson Hole Airport (AWOS), Jackson, WY: 7/04/2020 01:56
Visibility10 statute milesclear sky
View 7-Day Forecast
Area Summary
Sky/CloudsSky Clear
Weather [last 24 hours]None [rain began 03:39; rain ended 04:14 began 04:48; rain ended 05:14 ]
Pressure30.24 in.Hg (1024 hPa)
Dew Point39 °F (3.9 °C)
Relative Humidity73.8 %
Last 24-Hour Precip.Trace
Reading TimePrecipitation
6-hr ending 7/3@05:56Trace
Temperature46.9 °F (8.3 °C)red thermometer
Wind Chill44.8 °F (7.14 °C)
Reading TimeMinimum to Maximum Temperature
6-hr ending 7/3@23:5650 °F to 78.1 °F (10 °C to 25.6 °C)
6-hr ending 7/3@17:5670 °F to 80.1 °F (21.1 °C to 26.7 °C)
6-hr ending 7/3@11:5650 °F to 71.1 °F (10 °C to 21.7 °C)
6-hr ending 7/3@05:5648.9 °F to 57 °F (9.4 °C to 13.9 °C)
24-hr ending 7/4@00:5646.9 °F to 80.1 °F (8.3 °C to 26.7 °C)
Wind4.6 MPH (4 KT) green arrow pointing 67.5 degrees
Wind FromEast/Northeast (070 Degrees)
Twilight Begins05:11Sunshine Yesterday
Sunrise05:46N/A
Sunset21:09
Twilight Ends21:44
METARKJAC 040756Z 07004KT 10SM CLR 08/04 A3024 RMK AO2 SLP184 T00830039
Tags: